createdAt,value
2023-04-25T00:00:15.777Z,60.80
2023-04-25T00:02:42.643Z,60.47
2023-04-25T00:05:10.426Z,60.89
2023-04-25T00:07:37.110Z,60.81
2023-04-25T00:10:04.557Z,60.93
2023-04-25T00:12:31.079Z,61.58
2023-04-25T00:15:01.005Z,61.21
2023-04-25T00:17:27.883Z,60.99
2023-04-25T00:19:54.537Z,60.35
2023-04-25T00:22:21.975Z,61.00
2023-04-25T00:24:48.734Z,60.83
2023-04-25T00:27:15.392Z,60.69
2023-04-25T00:29:41.957Z,59.61
2023-04-25T00:32:08.585Z,60.38
2023-04-25T00:34:35.364Z,60.42
2023-04-25T00:37:03.263Z,60.04
2023-04-25T00:39:29.950Z,60.34
2023-04-25T00:41:57.024Z,60.64
2023-04-25T00:44:25.182Z,60.03
2023-04-25T00:46:52.772Z,60.43
2023-04-25T00:49:19.361Z,60.95
2023-04-25T00:51:45.939Z,60.32
2023-04-25T00:54:13.657Z,60.74
2023-04-25T00:56:40.914Z,61.18
2023-04-25T00:59:08.034Z,61.06
2023-04-25T01:01:34.764Z,62.10
2023-04-25T01:04:02.695Z,62.45
2023-04-25T01:06:29.509Z,62.36
2023-04-25T01:08:56.235Z,62.42
2023-04-25T01:11:22.836Z,63.14
2023-04-25T01:13:49.657Z,62.76
2023-04-25T01:16:16.498Z,63.04
2023-04-25T01:18:43.742Z,64.49
2023-04-25T01:21:12.429Z,63.40
2023-04-25T01:23:41.239Z,64.63
2023-04-25T01:26:09.896Z,64.44
2023-04-25T01:28:37.114Z,66.19
2023-04-25T01:31:03.919Z,65.89
2023-04-25T01:33:30.839Z,65.12
2023-04-25T01:35:57.459Z,65.45
2023-04-25T01:38:24.290Z,65.39
2023-04-25T01:40:52.386Z,65.92
2023-04-25T01:43:19.079Z,65.52
2023-04-25T01:45:45.804Z,65.87
2023-04-25T01:48:15.147Z,66.02
2023-04-25T01:50:42.631Z,65.69
2023-04-25T01:53:10.411Z,67.31
2023-04-25T01:55:36.953Z,66.79
2023-04-25T01:58:04.201Z,66.32
2023-04-25T02:00:30.720Z,66.93
2023-04-25T02:03:00.258Z,68.13
2023-04-25T02:05:27.094Z,67.47
2023-04-25T02:07:53.686Z,67.79
2023-04-25T02:10:20.358Z,68.00
2023-04-25T02:12:46.924Z,68.07
2023-04-25T02:15:14.230Z,67.99
2023-04-25T02:17:40.831Z,68.18
2023-04-25T02:20:08.216Z,68.03
2023-04-25T02:22:36.398Z,69.09
2023-04-25T02:25:05.680Z,68.37
2023-04-25T02:27:32.284Z,68.71
2023-04-25T02:29:58.983Z,68.05
2023-04-25T02:32:25.898Z,67.42
2023-04-25T02:34:52.550Z,67.80
2023-04-25T02:37:19.501Z,67.44
2023-04-25T02:39:46.174Z,67.24
2023-04-25T02:42:13.793Z,68.61
2023-04-25T02:44:40.346Z,68.43
2023-04-25T02:47:07.163Z,68.46
2023-04-25T02:49:33.744Z,68.75
2023-04-25T02:52:00.800Z,68.80
2023-04-25T02:54:27.304Z,68.27
2023-04-25T02:56:53.883Z,68.24
2023-04-25T02:59:20.384Z,68.76
2023-04-25T03:01:46.927Z,69.63
2023-04-25T03:04:13.538Z,69.66
2023-04-25T03:06:40.318Z,70.39
2023-04-25T03:09:07.325Z,70.40
2023-04-25T03:11:34.007Z,70.57
2023-04-25T03:14:00.678Z,70.50
2023-04-25T03:16:27.256Z,71.48
2023-04-25T03:18:53.870Z,72.12
2023-04-25T03:21:20.607Z,72.10
2023-04-25T03:23:47.195Z,71.25
2023-04-25T03:26:13.776Z,71.24
2023-04-25T03:28:41.157Z,70.99
2023-04-25T03:31:07.793Z,70.88
2023-04-25T03:33:34.345Z,70.44
2023-04-25T03:36:00.929Z,70.29
2023-04-25T03:38:27.448Z,70.29
2023-04-25T03:40:55.220Z,70.24
2023-04-25T03:43:21.859Z,70.44
2023-04-25T03:45:48.553Z,70.77
2023-04-25T03:48:15.576Z,70.15
2023-04-25T03:50:42.119Z,71.39
2023-04-25T03:53:08.720Z,71.86
2023-04-25T03:55:35.323Z,72.06
2023-04-25T03:58:01.875Z,72.56
2023-04-25T04:00:28.454Z,73.09
2023-04-25T04:02:55.123Z,72.89
2023-04-25T04:05:22.317Z,72.94
2023-04-25T04:07:48.997Z,71.70
2023-04-25T04:10:15.572Z,72.77
2023-04-25T04:12:42.110Z,72.63
2023-04-25T04:15:09.126Z,71.91
2023-04-25T04:17:35.858Z,72.47
2023-04-25T04:20:04.445Z,71.66
2023-04-25T04:22:30.994Z,70.27
2023-04-25T04:24:57.866Z,70.46
2023-04-25T04:27:24.715Z,71.36
2023-04-25T04:29:53.285Z,71.39
2023-04-25T04:32:20.035Z,71.76
2023-04-25T04:34:48.335Z,72.51
2023-04-25T04:37:14.901Z,72.68
2023-04-25T04:39:41.628Z,72.67
2023-04-25T04:42:09.684Z,71.73
2023-04-25T04:44:36.478Z,71.50
2023-04-25T04:47:04.837Z,72.01
2023-04-25T04:49:31.525Z,73.66
2023-04-25T04:51:59.635Z,71.37
2023-04-25T04:54:26.705Z,72.63
2023-04-25T04:56:53.657Z,72.03
2023-04-25T04:59:20.220Z,72.66
2023-04-25T05:01:47.831Z,73.03
2023-04-25T05:04:14.645Z,72.68
2023-04-25T05:06:41.540Z,75.35
2023-04-25T05:09:08.201Z,77.46
2023-04-25T05:11:34.800Z,78.45
2023-04-25T05:14:01.441Z,77.78
2023-04-25T05:16:28.039Z,78.32
2023-04-25T05:18:54.661Z,82.39
2023-04-25T05:21:21.189Z,80.52
2023-04-25T05:23:47.657Z,81.74
2023-04-25T05:26:16.944Z,82.36
2023-04-25T05:28:43.798Z,83.09
2023-04-25T05:31:11.483Z,84.41
2023-04-25T05:33:38.541Z,84.35
2023-04-25T05:36:05.745Z,86.02
2023-04-25T05:38:34.687Z,86.22
2023-04-25T05:41:01.854Z,85.67
2023-04-25T05:43:28.389Z,85.40
2023-04-25T05:45:55.055Z,86.92
2023-04-25T05:48:21.694Z,86.57
2023-04-25T05:50:48.387Z,86.30
2023-04-25T05:53:15.149Z,87.18
2023-04-25T05:55:41.752Z,88.25
2023-04-25T05:58:08.334Z,87.67
2023-04-25T06:00:35.368Z,87.94
2023-04-25T06:03:02.500Z,87.32
2023-04-25T06:05:29.874Z,87.22
2023-04-25T06:07:56.656Z,88.45
2023-04-25T06:10:23.729Z,87.34
2023-04-25T06:12:50.363Z,86.71
2023-04-25T06:15:28.249Z,85.98
2023-04-25T06:17:56.520Z,87.13
2023-04-25T06:20:25.077Z,87.93
2023-04-25T06:22:55.532Z,87.24
2023-04-25T06:25:22.102Z,85.79
2023-04-25T06:27:48.823Z,84.15
2023-04-25T06:30:16.204Z,85.82
2023-04-25T06:32:42.892Z,84.98
2023-04-25T06:35:10.016Z,84.05
2023-04-25T06:37:36.627Z,84.69
2023-04-25T06:40:03.506Z,85.62
2023-04-25T06:42:30.006Z,84.12
2023-04-25T06:44:56.882Z,84.25
2023-04-25T06:47:23.438Z,83.79
2023-04-25T06:49:50.554Z,79.34
2023-04-25T06:52:19.084Z,77.17
2023-04-25T06:54:46.352Z,75.50
2023-04-25T06:57:13.159Z,80.24
2023-04-25T06:59:39.755Z,79.73
2023-04-25T07:02:07.164Z,80.53
2023-04-25T07:04:33.863Z,76.79
2023-04-25T07:07:02.177Z,78.21
2023-04-25T07:09:28.866Z,77.88
2023-04-25T07:11:55.442Z,78.66
2023-04-25T07:14:21.978Z,80.99
2023-04-25T07:16:48.921Z,80.22
2023-04-25T07:19:15.556Z,80.29
2023-04-25T07:21:42.113Z,79.90
2023-04-25T07:24:08.777Z,80.78
2023-04-25T07:26:35.549Z,83.21
2023-04-25T07:29:02.143Z,82.82
2023-04-25T07:31:28.974Z,83.15
2023-04-25T07:33:55.680Z,82.20
2023-04-25T07:36:22.579Z,84.22
2023-04-25T07:38:49.213Z,83.08
2023-04-25T07:41:16.706Z,81.32
2023-04-25T07:43:43.349Z,80.60
2023-04-25T07:46:09.983Z,81.38
2023-04-25T07:48:36.528Z,78.42
2023-04-25T07:51:03.797Z,79.04
2023-04-25T07:53:30.357Z,76.46
2023-04-25T07:55:57.031Z,75.14
2023-04-25T07:58:23.648Z,76.16
2023-04-25T08:00:50.922Z,73.84
2023-04-25T08:03:17.683Z,67.00
2023-04-25T08:05:44.691Z,70.80
2023-04-25T08:08:11.500Z,70.77
2023-04-25T08:10:38.084Z,71.05
2023-04-25T08:13:04.663Z,71.34
2023-04-25T08:15:31.365Z,74.42
2023-04-25T08:17:58.066Z,75.08
2023-04-25T08:20:24.677Z,75.21
2023-04-25T08:22:51.205Z,73.04
2023-04-25T08:25:17.961Z,75.98
2023-04-25T08:27:44.608Z,73.83
2023-04-25T08:30:11.423Z,68.51
2023-04-25T08:32:39.826Z,69.39
2023-04-25T08:35:07.110Z,64.58
2023-04-25T08:37:33.744Z,68.22
2023-04-25T08:40:00.342Z,67.47
2023-04-25T08:42:29.912Z,66.34
2023-04-25T08:44:57.373Z,64.52
2023-04-25T08:47:24.906Z,60.82
2023-04-25T08:49:55.291Z,63.25
2023-04-25T08:52:25.204Z,68.14
2023-04-25T08:54:52.552Z,68.86
2023-04-25T08:57:19.574Z,68.21
2023-04-25T08:59:47.934Z,71.40
2023-04-25T09:02:17.615Z,74.38
2023-04-25T09:04:45.303Z,73.98
2023-04-25T09:07:12.209Z,77.77
2023-04-25T09:09:38.861Z,76.99
2023-04-25T09:12:06.597Z,79.21
2023-04-25T09:14:33.293Z,77.84
2023-04-25T09:17:05.789Z,77.67
2023-04-25T09:19:41.689Z,77.66
2023-04-25T09:22:09.601Z,77.26
2023-04-25T09:24:45.244Z,76.39
2023-04-25T09:27:18.627Z,74.48
2023-04-25T09:29:45.254Z,73.20
2023-04-25T09:32:22.181Z,68.48
2023-04-25T09:34:52.737Z,70.09
2023-04-25T09:37:26.596Z,67.69
2023-04-25T09:40:03.662Z,67.37
2023-04-25T09:42:32.999Z,63.63
2023-04-25T09:45:00.232Z,63.51
2023-04-25T09:47:27.914Z,59.83
2023-04-25T09:49:56.050Z,63.20
2023-04-25T09:52:25.685Z,60.24
2023-04-25T09:54:53.515Z,62.29
2023-04-25T09:57:25.329Z,65.59
2023-04-25T09:59:53.798Z,65.41
2023-04-25T10:02:26.800Z,62.79
2023-04-25T10:04:58.334Z,62.95
2023-04-25T10:07:27.676Z,68.70
2023-04-25T10:10:04.063Z,59.71
2023-04-25T10:12:33.994Z,59.80
2023-04-25T10:15:01.551Z,58.43
2023-04-25T10:17:31.258Z,57.63
2023-04-25T10:19:58.945Z,58.22
2023-04-25T10:22:38.938Z,58.41
2023-04-25T10:25:06.286Z,58.60
2023-04-25T10:27:33.158Z,57.53
2023-04-25T10:30:12.081Z,54.72
2023-04-25T10:32:38.698Z,55.63
2023-04-25T10:35:19.705Z,55.28
2023-04-25T10:38:04.322Z,54.38
2023-04-25T10:40:31.147Z,53.13
2023-04-25T10:43:32.977Z,54.37
2023-04-25T10:46:04.128Z,56.16
2023-04-25T10:48:32.068Z,56.21
2023-04-25T10:51:11.926Z,54.39
2023-04-25T10:53:38.783Z,56.59
2023-04-25T10:56:32.962Z,56.38
2023-04-25T10:59:11.180Z,55.79
2023-04-25T11:01:42.753Z,55.02
2023-04-25T11:04:27.935Z,56.55
2023-04-25T11:07:07.165Z,55.02
2023-04-25T11:09:36.039Z,53.86
2023-04-25T11:12:03.119Z,55.49
2023-04-25T11:14:29.858Z,55.99
2023-04-25T11:17:00.585Z,55.57
2023-04-25T11:19:28.523Z,54.41
2023-04-25T11:21:59.408Z,53.04
2023-04-25T11:24:30.504Z,52.74
2023-04-25T11:26:59.189Z,55.04
2023-04-25T11:29:30.336Z,53.60
2023-04-25T11:32:01.260Z,51.43
2023-04-25T11:34:32.765Z,54.32
2023-04-25T11:37:03.625Z,51.52
2023-04-25T11:39:30.993Z,47.78
2023-04-25T11:41:57.574Z,47.22
2023-04-25T11:44:25.429Z,50.32
2023-04-25T11:46:52.077Z,47.71
2023-04-25T11:49:19.490Z,48.99
2023-04-25T11:51:48.577Z,47.50
2023-04-25T11:54:16.381Z,47.25
2023-04-25T11:56:46.857Z,49.27
2023-04-25T11:59:14.180Z,48.96
2023-04-25T12:01:42.672Z,50.34
2023-04-25T12:04:17.490Z,49.84
2023-04-25T12:06:49.398Z,48.95
2023-04-25T12:09:19.521Z,48.49
2023-04-25T12:11:48.589Z,48.64
2023-04-25T12:14:28.158Z,47.14
2023-04-25T12:16:58.262Z,50.12
2023-04-25T12:19:25.715Z,48.30
2023-04-25T12:24:26.935Z,50.01
2023-04-25T12:27:00.899Z,49.58
2023-04-25T12:29:34.697Z,51.58
2023-04-25T12:32:05.582Z,52.86
2023-04-25T12:34:33.683Z,53.46
2023-04-25T12:37:00.593Z,55.75
2023-04-25T12:39:27.181Z,58.60
2023-04-25T12:41:55.181Z,57.81
2023-04-25T12:44:22.277Z,55.16
2023-04-25T12:46:49.605Z,51.12
2023-04-25T12:49:19.320Z,47.97
2023-04-25T12:51:46.357Z,49.67
2023-04-25T12:54:12.969Z,53.86
2023-04-25T12:56:39.705Z,51.55
2023-04-25T12:59:06.389Z,54.43
2023-04-25T13:01:34.849Z,51.33
2023-04-25T13:04:03.250Z,52.58
2023-04-25T13:06:31.820Z,51.16
2023-04-25T13:08:58.543Z,51.36
2023-04-25T13:11:25.215Z,52.34
2023-04-25T13:13:52.145Z,49.40
2023-04-25T13:16:21.967Z,49.32
2023-04-25T13:18:49.103Z,48.66
2023-04-25T13:21:15.813Z,46.97
2023-04-25T13:23:44.023Z,46.36
2023-04-25T13:26:11.257Z,47.99
2023-04-25T13:28:37.862Z,43.78
2023-04-25T13:31:04.493Z,44.77
2023-04-25T13:33:31.240Z,41.34
2023-04-25T13:35:58.511Z,44.10
2023-04-25T13:38:26.662Z,42.33
2023-04-25T13:40:53.815Z,44.96
2023-04-25T13:43:23.742Z,43.10
2023-04-25T13:45:51.247Z,44.42
2023-04-25T13:48:19.361Z,42.05
2023-04-25T13:50:46.750Z,40.65
2023-04-25T13:53:13.609Z,39.04
2023-04-25T13:55:40.221Z,43.48
2023-04-25T13:58:10.884Z,43.31
2023-04-25T14:00:40.247Z,41.38
2023-04-25T14:03:09.072Z,41.56
2023-04-25T14:05:39.271Z,42.09
2023-04-25T14:08:08.160Z,42.07
2023-04-25T14:10:35.756Z,41.97
2023-04-25T14:13:04.342Z,42.70
2023-04-25T14:15:34.563Z,44.66
2023-04-25T14:18:02.232Z,43.05
2023-04-25T14:20:29.613Z,43.29
2023-04-25T14:22:58.080Z,45.98
2023-04-25T14:25:25.474Z,46.53
2023-04-25T14:27:52.350Z,46.59
2023-04-25T14:30:20.188Z,46.60
2023-04-25T14:32:47.376Z,48.02
2023-04-25T14:35:14.271Z,48.83
2023-04-25T14:37:41.010Z,47.14
2023-04-25T14:40:11.462Z,48.21
2023-04-25T14:42:39.313Z,45.06
2023-04-25T14:45:08.349Z,44.73
2023-04-25T14:47:37.068Z,43.65
2023-04-25T14:50:04.051Z,39.33
2023-04-25T14:52:30.668Z,37.72
2023-04-25T14:54:57.242Z,32.76
2023-04-25T14:57:23.898Z,36.67
2023-04-25T14:59:50.552Z,39.13
2023-04-25T15:02:17.315Z,41.74
2023-04-25T15:04:44.502Z,42.59
2023-04-25T15:07:11.380Z,40.70
2023-04-25T15:09:37.968Z,41.35
2023-04-25T15:12:04.878Z,39.50
2023-04-25T15:14:31.700Z,38.93
2023-04-25T15:16:58.311Z,40.80
2023-04-25T15:19:24.998Z,43.81
2023-04-25T15:21:51.782Z,43.45
2023-04-25T15:24:19.112Z,39.33
2023-04-25T15:26:46.837Z,37.94
2023-04-25T15:29:13.465Z,35.34
2023-04-25T15:31:40.019Z,34.47
2023-04-25T15:34:07.680Z,39.00
2023-04-25T15:36:34.495Z,42.38
2023-04-25T15:39:01.025Z,42.37
2023-04-25T15:41:27.552Z,44.69
2023-04-25T15:43:54.971Z,45.52
2023-04-25T15:46:24.463Z,45.20
2023-04-25T15:48:51.119Z,45.93
2023-04-25T15:51:17.829Z,44.84
2023-04-25T15:53:44.510Z,46.51
2023-04-25T15:56:11.590Z,46.95
2023-04-25T15:58:38.156Z,46.37
2023-04-25T16:01:05.196Z,46.90
2023-04-25T16:03:34.494Z,47.58
2023-04-25T16:06:03.255Z,47.84
2023-04-25T16:08:30.015Z,47.39
2023-04-25T16:10:57.433Z,47.48
2023-04-25T16:13:24.064Z,46.87
2023-04-25T16:15:50.853Z,47.75
2023-04-25T16:18:17.887Z,47.52
2023-04-25T16:20:45.027Z,49.87
2023-04-25T16:23:11.825Z,50.27
2023-04-25T16:25:38.537Z,50.53
2023-04-25T16:28:05.133Z,51.81
2023-04-25T16:30:31.867Z,54.60
2023-04-25T16:32:58.453Z,58.39
2023-04-25T16:35:25.514Z,59.78
2023-04-25T16:37:52.404Z,58.66
2023-04-25T16:40:19.099Z,62.22
2023-04-25T16:42:46.215Z,64.92
2023-04-25T16:45:14.183Z,66.38
2023-04-25T16:47:40.782Z,64.12
2023-04-25T16:50:08.006Z,61.55
2023-04-25T16:52:34.613Z,61.43
2023-04-25T16:55:01.456Z,60.04
2023-04-25T16:57:27.982Z,61.67
2023-04-25T16:59:54.484Z,60.83
2023-04-25T17:02:21.244Z,61.65
2023-04-25T17:04:47.833Z,60.87
2023-04-25T17:07:14.406Z,60.05
2023-04-25T17:09:41.037Z,60.48
2023-04-25T17:12:08.101Z,59.27
2023-04-25T17:14:35.997Z,61.30
2023-04-25T17:17:02.736Z,60.66
2023-04-25T17:19:30.930Z,58.75
2023-04-25T17:21:57.643Z,59.37
2023-04-25T17:24:24.549Z,58.23
2023-04-25T17:26:51.156Z,58.91
2023-04-25T17:29:17.781Z,59.56
2023-04-25T17:31:44.898Z,58.98
2023-04-25T17:34:16.485Z,57.37
2023-04-25T17:36:43.157Z,58.81
2023-04-25T17:39:11.033Z,57.87
2023-04-25T17:41:38.486Z,57.43
2023-04-25T17:44:05.265Z,58.67
2023-04-25T17:46:31.932Z,60.97
2023-04-25T17:48:58.870Z,59.49
2023-04-25T17:51:26.821Z,58.51
2023-04-25T17:53:53.480Z,59.27
2023-04-25T17:58:53.092Z,59.43
2023-04-25T18:01:19.889Z,58.95
2023-04-25T18:03:49.027Z,58.83
2023-04-25T18:06:16.964Z,59.91
2023-04-25T18:08:44.782Z,61.69
2023-04-25T18:11:12.194Z,61.29
2023-04-25T18:13:39.224Z,61.79
2023-04-25T18:16:06.317Z,62.99
2023-04-25T18:18:36.884Z,63.56
2023-04-25T18:21:05.636Z,63.67
2023-04-25T18:23:34.338Z,65.23
2023-04-25T18:26:02.283Z,65.14
2023-04-25T18:28:29.346Z,65.37
2023-04-25T18:30:56.729Z,64.99
2023-04-25T18:33:23.458Z,65.24
2023-04-25T18:35:58.731Z,64.01
2023-04-25T18:41:06.122Z,64.09
2023-04-25T18:43:36.984Z,64.66
2023-04-25T18:46:03.581Z,64.57
2023-04-25T18:48:30.187Z,64.75
2023-04-25T18:50:56.847Z,65.80
2023-04-25T18:53:23.392Z,66.11
2023-04-25T18:55:50.029Z,66.98
2023-04-25T18:58:16.633Z,66.60
2023-04-25T19:00:43.301Z,66.37
2023-04-25T19:03:10.031Z,66.37
2023-04-25T19:05:37.408Z,67.72
2023-04-25T19:08:04.178Z,69.38
2023-04-25T19:10:30.796Z,67.55
2023-04-25T19:12:57.442Z,66.70
2023-04-25T19:15:23.961Z,68.61
2023-04-25T19:17:51.583Z,68.83
2023-04-25T19:20:18.564Z,67.37
2023-04-25T19:22:45.157Z,67.29
2023-04-25T19:25:11.776Z,65.60
2023-04-25T19:27:39.011Z,66.50
2023-04-25T19:30:09.307Z,66.34
2023-04-25T19:32:36.038Z,66.29
2023-04-25T19:35:04.110Z,66.73
2023-04-25T19:37:30.957Z,68.56
2023-04-25T19:39:57.872Z,67.11
2023-04-25T19:42:24.499Z,67.88
2023-04-25T19:44:52.207Z,68.04
2023-04-25T19:47:19.048Z,69.42
2023-04-25T19:49:45.783Z,69.31
2023-04-25T19:52:15.023Z,70.17
2023-04-25T19:54:42.085Z,69.88
2023-04-25T19:57:08.917Z,69.67
2023-04-25T19:59:35.465Z,70.37
2023-04-25T20:02:02.330Z,70.59
2023-04-25T20:04:29.066Z,71.15
2023-04-25T20:06:56.292Z,71.74
2023-04-25T20:09:23.372Z,71.99
2023-04-25T20:11:50.012Z,71.63
2023-04-25T20:14:16.557Z,72.76
2023-04-25T20:16:43.139Z,73.60
2023-04-25T20:19:09.831Z,73.45
2023-04-25T20:21:36.676Z,74.24
2023-04-25T20:24:03.527Z,74.61
2023-04-25T20:26:33.909Z,73.28
2023-04-25T20:29:01.951Z,73.88
2023-04-25T20:31:31.025Z,75.97
2023-04-25T20:33:59.205Z,76.02
2023-04-25T20:36:26.732Z,75.76
2023-04-25T20:38:53.857Z,76.88
2023-04-25T20:41:20.964Z,77.26
2023-04-25T20:43:48.308Z,77.32
2023-04-25T20:46:16.223Z,77.52
2023-04-25T20:48:42.900Z,77.65
2023-04-25T20:51:09.467Z,77.82
2023-04-25T20:53:36.123Z,78.80
2023-04-25T20:56:02.803Z,77.59
2023-04-25T20:58:29.452Z,76.75
2023-04-25T21:00:56.559Z,78.06
2023-04-25T21:03:23.419Z,78.41
2023-04-25T21:05:50.365Z,79.01
2023-04-25T21:08:17.512Z,78.28
2023-04-25T21:10:44.159Z,79.05
2023-04-25T21:13:12.234Z,77.49
2023-04-25T21:15:39.232Z,77.26
2023-04-25T21:18:07.140Z,77.71
2023-04-25T21:20:33.907Z,78.74
2023-04-25T21:23:00.570Z,79.68
2023-04-25T21:25:31.434Z,80.26
2023-04-25T21:27:59.396Z,80.38
2023-04-25T21:30:26.616Z,79.59
2023-04-25T21:32:53.584Z,80.52
2023-04-25T21:35:21.377Z,80.75
2023-04-25T21:37:48.533Z,80.96
2023-04-25T21:40:15.762Z,80.59
2023-04-25T21:42:44.834Z,79.63
2023-04-25T21:45:12.040Z,79.56
2023-04-25T21:47:39.161Z,78.97
2023-04-25T21:50:06.226Z,78.19
2023-04-25T21:52:32.863Z,78.08
2023-04-25T21:54:59.442Z,77.96
2023-04-25T21:57:26.481Z,78.68
2023-04-25T21:59:53.609Z,78.08
2023-04-25T22:02:20.598Z,78.99
2023-04-25T22:04:47.725Z,79.48
2023-04-25T22:07:14.947Z,78.12
2023-04-25T22:09:53.655Z,80.11
2023-04-25T22:12:21.508Z,79.79
2023-04-25T22:14:48.848Z,81.49
2023-04-25T22:17:15.510Z,82.69
2023-04-25T22:19:43.252Z,82.36
2023-04-25T22:22:09.728Z,81.78
2023-04-25T22:24:36.626Z,82.84
2023-04-25T22:27:03.321Z,83.73
2023-04-25T22:29:29.782Z,82.68
2023-04-25T22:31:56.795Z,80.94
2023-04-25T22:34:23.517Z,81.11
2023-04-25T22:36:50.000Z,81.31
2023-04-25T22:39:16.966Z,82.18
2023-04-25T22:41:43.586Z,81.73
2023-04-25T22:44:11.138Z,81.34
2023-04-25T22:46:37.758Z,80.49
2023-04-25T22:49:04.696Z,82.85
2023-04-25T22:51:31.523Z,83.90
2023-04-25T22:53:58.030Z,84.12
2023-04-25T22:56:24.768Z,82.34
2023-04-25T22:58:51.599Z,79.62
2023-04-25T23:01:19.445Z,80.11
2023-04-25T23:03:46.393Z,82.55
2023-04-25T23:06:13.560Z,83.29
2023-04-25T23:08:41.771Z,82.27
2023-04-25T23:11:08.651Z,81.58
2023-04-25T23:13:37.076Z,81.62
2023-04-25T23:16:08.778Z,81.38
2023-04-25T23:18:39.347Z,82.04
2023-04-25T23:21:12.338Z,82.76
2023-04-25T23:23:39.923Z,82.54
2023-04-25T23:26:10.990Z,83.04
2023-04-25T23:28:41.421Z,83.19
2023-04-25T23:31:09.953Z,82.70
2023-04-25T23:33:36.738Z,82.02
2023-04-25T23:36:03.609Z,83.23
2023-04-25T23:38:30.349Z,85.38
2023-04-25T23:40:56.944Z,86.51
2023-04-25T23:43:23.512Z,86.92
2023-04-25T23:45:50.108Z,85.05
2023-04-25T23:48:16.885Z,84.59
2023-04-25T23:50:43.399Z,85.07
2023-04-25T23:53:09.962Z,85.18
2023-04-25T23:55:36.694Z,84.99
2023-04-25T23:58:03.756Z,85.90
